createdAt,value
2022-08-07T00:00:51.879Z,208.40
2022-08-07T00:03:19.002Z,222.27
2022-08-07T00:05:46.375Z,196.60
2022-08-07T00:08:14.434Z,230.45
2022-08-07T00:10:48.249Z,228.93
2022-08-07T00:13:26.805Z,213.45
2022-08-07T00:15:53.915Z,229.20
2022-08-07T00:18:25.025Z,249.88
2022-08-07T00:20:54.889Z,218.60
2022-08-07T00:23:24.340Z,242.68
2022-08-07T00:25:58.174Z,231.27
2022-08-07T00:28:31.628Z,197.80
2022-08-07T00:33:34.788Z,207.73
2022-08-07T00:36:02.190Z,221.02
2022-08-07T00:38:31.101Z,237.57
2022-08-07T00:40:59.515Z,208.00
2022-08-07T00:43:59.782Z,217.40
2022-08-07T00:46:14.345Z,189.65
2022-08-07T00:48:42.275Z,224.50
2022-08-07T00:51:10.290Z,203.30
2022-08-07T00:53:38.903Z,237.80
2022-08-07T00:56:18.167Z,223.10
2022-08-07T00:58:46.946Z,229.68
2022-08-07T01:01:17.603Z,220.48
2022-08-07T01:03:57.162Z,209.80
2022-08-07T01:06:28.804Z,205.20
2022-08-07T01:08:58.717Z,238.02
2022-08-07T01:12:27.364Z,259.20
2022-08-07T01:14:28.307Z,239.23
2022-08-07T01:16:57.546Z,205.77
2022-08-07T01:19:32.180Z,249.55
2022-08-07T01:22:00.108Z,265.50
2022-08-07T01:24:35.498Z,249.07
2022-08-07T01:27:03.299Z,251.82
2022-08-07T01:29:33.920Z,241.93
2022-08-07T01:32:05.236Z,255.65
2022-08-07T01:34:34.486Z,243.63
2022-08-07T01:37:09.625Z,271.05
2022-08-07T01:39:40.952Z,253.43
2022-08-07T01:42:40.121Z,252.93
2022-08-07T01:45:18.232Z,221.13
2022-08-07T01:48:16.835Z,261.67
2022-08-07T01:50:42.911Z,242.98
2022-08-07T01:53:21.077Z,244.13
2022-08-07T01:55:58.225Z,266.60
2022-08-07T01:58:33.360Z,266.75
2022-08-07T02:01:25.085Z,277.05
2022-08-07T02:04:01.375Z,251.88
2022-08-07T02:06:33.283Z,255.30
2022-08-07T02:09:07.992Z,276.13
2022-08-07T02:12:04.596Z,272.60
2022-08-07T02:14:40.240Z,287.27
2022-08-07T02:17:16.549Z,303.48
2022-08-07T02:20:04.526Z,256.17
2022-08-07T02:22:38.380Z,279.70
2022-08-07T02:25:17.521Z,278.60
2022-08-07T02:27:56.623Z,267.08
2022-08-07T02:30:24.593Z,305.65
2022-08-07T02:33:00.534Z,278.98
2022-08-07T02:36:28.442Z,325.13
2022-08-07T02:38:32.269Z,290.83
2022-08-07T02:43:36.001Z,304.08
2022-08-07T02:46:07.368Z,300.23
2022-08-07T02:48:35.819Z,281.65
2022-08-07T02:51:14.209Z,287.23
2022-08-07T02:53:57.136Z,321.38
2022-08-07T02:56:28.007Z,275.85
2022-08-07T02:58:56.390Z,280.58
2022-08-07T03:01:36.429Z,296.30
2022-08-07T03:04:13.916Z,327.92
2022-08-07T03:06:48.137Z,312.25
2022-08-07T03:12:06.913Z,278.60
2022-08-07T03:14:37.089Z,322.50
2022-08-07T03:17:05.588Z,315.23
2022-08-07T03:19:37.313Z,315.55
2022-08-07T03:22:07.053Z,303.08
2022-08-07T03:24:34.938Z,284.10
2022-08-07T03:27:08.848Z,348.88
2022-08-07T03:29:51.311Z,289.05
2022-08-07T03:32:32.380Z,296.42
2022-08-07T03:35:18.029Z,334.80
2022-08-07T03:37:54.952Z,315.90
2022-08-07T03:40:30.671Z,292.83
2022-08-07T03:43:05.413Z,318.60
2022-08-07T03:45:43.748Z,285.88
2022-08-07T03:48:16.858Z,302.75
2022-08-07T03:50:55.978Z,296.73
2022-08-07T03:54:00.628Z,318.80
2022-08-07T03:56:33.307Z,339.83
2022-08-07T03:59:09.761Z,344.23
2022-08-07T04:01:45.248Z,307.52
2022-08-07T04:04:17.896Z,335.63
2022-08-07T04:06:50.791Z,312.33
2022-08-07T04:09:23.289Z,328.70
2022-08-07T04:12:23.945Z,301.67
2022-08-07T04:14:45.911Z,314.30
2022-08-07T04:17:21.075Z,301.48
2022-08-07T04:19:55.075Z,304.10
2022-08-07T04:22:29.645Z,315.58
2022-08-07T04:25:03.692Z,308.42
2022-08-07T04:27:44.364Z,262.63
2022-08-07T04:30:35.591Z,273.20
2022-08-07T04:33:13.773Z,224.52
2022-08-07T04:35:50.370Z,205.23
2022-08-07T04:38:20.538Z,213.82
2022-08-07T04:40:51.769Z,170.73
2022-08-07T04:44:13.207Z,156.32
2022-08-07T04:46:59.731Z,149.27
2022-08-07T04:49:47.336Z,124.70
2022-08-07T04:52:51.020Z,102.63
2022-08-07T04:58:13.069Z,73.78
2022-08-07T05:01:44.251Z,58.60
2022-08-07T05:04:26.785Z,47.55
2022-08-07T05:07:20.711Z,47.00
2022-08-07T05:10:00.786Z,45.47
2022-08-07T05:14:52.590Z,27.73
2022-08-07T05:16:08.978Z,25.40
2022-08-07T05:18:53.702Z,26.40
2022-08-07T05:21:25.391Z,15.90
2022-08-07T05:24:17.082Z,17.90
2022-08-07T05:26:47.233Z,11.95
2022-08-07T05:29:16.599Z,12.57
2022-08-07T05:31:47.429Z,12.88
2022-08-07T05:34:26.183Z,7.00
2022-08-07T05:36:55.969Z,14.02
2022-08-07T05:40:16.486Z,8.40
2022-08-07T05:42:33.794Z,8.63
2022-08-07T05:45:25.845Z,6.50
2022-08-07T05:48:01.100Z,7.22
2022-08-07T05:50:32.027Z,4.68
2022-08-07T05:53:00.719Z,5.97
2022-08-07T05:56:02.111Z,6.50
2022-08-07T05:58:22.056Z,4.65
2022-08-07T06:01:09.221Z,4.45
2022-08-07T06:03:53.209Z,5.57
2022-08-07T06:06:29.602Z,3.25
2022-08-07T06:09:01.210Z,4.57
2022-08-07T06:11:34.323Z,2.53
2022-08-07T06:14:12.436Z,2.70
2022-08-07T06:16:50.430Z,1.80
2022-08-07T06:19:52.108Z,2.45
2022-08-07T06:22:23.938Z,1.80
2022-08-07T06:25:03.035Z,1.80
2022-08-07T06:27:44.481Z,2.40
2022-08-07T06:30:31.957Z,1.50
2022-08-07T06:33:16.249Z,1.77
2022-08-07T06:36:06.232Z,2.60
2022-08-07T06:38:33.516Z,1.48
2022-08-07T06:41:06.828Z,1.30
2022-08-07T06:43:39.521Z,1.20
2022-08-07T06:46:12.917Z,1.40
2022-08-07T06:48:42.177Z,2.28
2022-08-07T06:51:31.341Z,1.23
2022-08-07T06:55:28.141Z,1.15
2022-08-07T06:56:55.020Z,1.23
2022-08-07T07:00:12.531Z,1.65
2022-08-07T07:02:48.372Z,0.80
2022-08-07T07:05:12.940Z,0.63
2022-08-07T07:07:59.646Z,2.10
2022-08-07T07:10:33.574Z,0.85
2022-08-07T07:13:16.206Z,0.65
2022-08-07T07:16:07.731Z,2.08
2022-08-07T07:18:47.200Z,0.60
2022-08-07T07:21:27.021Z,1.83
2022-08-07T07:24:12.635Z,0.57
2022-08-07T07:26:52.001Z,0.60
2022-08-07T07:29:56.169Z,1.95
2022-08-07T07:32:14.002Z,0.77
2022-08-07T07:34:49.156Z,0.68
2022-08-07T07:37:45.216Z,0.57
2022-08-07T07:40:14.935Z,0.57
2022-08-07T07:42:47.036Z,0.50
2022-08-07T07:45:22.792Z,0.65
2022-08-07T07:48:11.069Z,0.60
2022-08-07T07:50:40.254Z,0.90
2022-08-07T07:53:20.410Z,0.50
2022-08-07T07:55:57.975Z,0.68
2022-08-07T07:58:40.403Z,1.60
2022-08-07T08:02:03.271Z,0.80
2022-08-07T08:04:06.213Z,0.82
2022-08-07T08:06:36.742Z,0.85
2022-08-07T08:09:05.944Z,0.68
2022-08-07T08:11:47.330Z,1.25
2022-08-07T08:14:26.425Z,0.95
2022-08-07T08:16:56.619Z,1.23
2022-08-07T08:20:18.464Z,1.63
2022-08-07T08:22:55.924Z,1.13
2022-08-07T08:27:20.424Z,2.03
2022-08-07T08:28:38.739Z,0.55
2022-08-07T08:31:16.397Z,0.60
2022-08-07T08:33:55.819Z,0.77
2022-08-07T08:36:29.750Z,0.50
2022-08-07T08:39:02.239Z,1.00
2022-08-07T08:41:57.862Z,0.85
2022-08-07T08:44:44.408Z,0.70
2022-08-07T08:47:22.338Z,0.60
2022-08-07T08:50:05.831Z,0.57
2022-08-07T08:52:51.483Z,0.40
2022-08-07T08:55:58.343Z,0.68
2022-08-07T08:58:41.544Z,0.60
2022-08-07T09:01:19.257Z,0.70
2022-08-07T09:04:28.801Z,0.93
2022-08-07T09:07:06.205Z,1.10
2022-08-07T09:10:03.385Z,2.40
2022-08-07T09:12:53.006Z,0.68
2022-08-07T09:16:22.758Z,1.48
2022-08-07T09:18:53.174Z,0.45
2022-08-07T09:22:23.145Z,0.55
2022-08-07T09:24:55.065Z,0.57
2022-08-07T09:28:00.297Z,0.60
2022-08-07T09:30:41.554Z,0.80
2022-08-07T09:36:14.734Z,2.88
2022-08-07T09:39:53.134Z,0.77
2022-08-07T09:42:09.883Z,0.63
2022-08-07T09:47:27.829Z,0.40
2022-08-07T09:48:19.633Z,0.50
2022-08-07T09:50:56.613Z,0.75
2022-08-07T09:53:41.131Z,0.73
2022-08-07T09:56:37.520Z,0.88
2022-08-07T09:59:44.330Z,1.20
2022-08-07T10:02:24.255Z,1.00
2022-08-07T10:05:13.922Z,0.63
2022-08-07T10:07:59.149Z,0.50
2022-08-07T10:14:01.586Z,0.50
2022-08-07T10:17:00.880Z,0.60
2022-08-07T10:19:30.709Z,0.98
2022-08-07T10:22:33.536Z,0.68
2022-08-07T10:25:43.538Z,0.60
2022-08-07T10:28:31.529Z,0.55
2022-08-07T10:31:38.661Z,0.55
2022-08-07T10:34:31.716Z,0.60
2022-08-07T10:37:12.741Z,0.65
2022-08-07T10:39:57.609Z,3.50
2022-08-07T10:42:54.127Z,0.40
2022-08-07T10:45:44.512Z,0.68
2022-08-07T10:48:34.743Z,0.68
2022-08-07T10:51:16.957Z,0.60
2022-08-07T10:54:27.469Z,0.65
2022-08-07T10:57:09.380Z,0.50
2022-08-07T10:59:53.226Z,0.50
2022-08-07T11:02:53.672Z,0.57
2022-08-07T11:05:58.446Z,0.32
2022-08-07T11:08:48.775Z,0.35
2022-08-07T11:11:27.664Z,0.73
2022-08-07T11:14:43.663Z,0.50
2022-08-07T11:17:01.110Z,1.85
2022-08-07T11:19:53.195Z,0.70
2022-08-07T11:22:32.514Z,0.52
2022-08-07T11:25:14.901Z,1.50
2022-08-07T11:28:02.572Z,0.50
2022-08-07T11:30:47.980Z,0.70
2022-08-07T11:33:53.562Z,0.50
2022-08-07T11:36:34.351Z,0.60
2022-08-07T11:40:00.005Z,0.73
2022-08-07T11:42:51.758Z,0.80
2022-08-07T11:45:54.677Z,0.70
2022-08-07T11:48:44.149Z,0.60
2022-08-07T11:51:50.507Z,0.43
2022-08-07T11:54:38.479Z,0.57
2022-08-07T11:57:20.624Z,0.65
2022-08-07T12:00:19.288Z,0.60
2022-08-07T12:02:55.799Z,0.55
2022-08-07T12:05:49.094Z,0.75
2022-08-07T12:08:35.112Z,1.90
2022-08-07T12:11:22.418Z,1.27
2022-08-07T12:14:05.385Z,0.50
2022-08-07T12:19:26.105Z,0.47
2022-08-07T12:22:38.590Z,0.65
2022-08-07T12:28:30.987Z,0.60
2022-08-07T12:31:05.473Z,0.60
2022-08-07T12:33:56.258Z,0.55
2022-08-07T12:36:32.785Z,0.88
2022-08-07T12:39:09.298Z,0.50
2022-08-07T12:41:53.517Z,0.40
2022-08-07T12:44:21.680Z,0.75
2022-08-07T12:47:10.940Z,0.57
2022-08-07T12:50:33.855Z,1.95
2022-08-07T12:53:05.031Z,0.55
2022-08-07T12:55:41.036Z,0.30
2022-08-07T12:58:35.312Z,0.77
2022-08-07T13:01:39.993Z,0.60
2022-08-07T13:04:34.609Z,1.45
2022-08-07T13:08:12.215Z,0.63
2022-08-07T13:10:39.355Z,0.77
2022-08-07T13:13:47.900Z,0.50
2022-08-07T13:16:37.313Z,0.40
2022-08-07T13:19:46.074Z,0.50
2022-08-07T13:22:31.248Z,0.67
2022-08-07T13:25:24.187Z,0.60
2022-08-07T13:28:18.212Z,0.43
2022-08-07T13:31:01.508Z,0.40
2022-08-07T13:34:34.475Z,0.60
2022-08-07T13:36:48.971Z,0.68
2022-08-07T13:40:32.644Z,0.52
2022-08-07T13:42:27.060Z,0.43
2022-08-07T13:46:06.591Z,0.63
2022-08-07T13:48:06.345Z,0.68
2022-08-07T13:50:45.037Z,2.08
2022-08-07T13:53:23.833Z,0.85
2022-08-07T13:55:54.676Z,0.32
2022-08-07T13:58:56.427Z,0.60
2022-08-07T14:01:26.264Z,0.50
2022-08-07T14:04:07.078Z,0.88
2022-08-07T14:06:38.387Z,0.82
2022-08-07T14:09:07.132Z,0.70
2022-08-07T14:12:00.152Z,0.90
2022-08-07T14:14:34.431Z,1.85
2022-08-07T14:17:32.104Z,1.05
2022-08-07T14:20:43.229Z,1.50
2022-08-07T14:22:53.983Z,2.38
2022-08-07T14:25:29.405Z,3.55
2022-08-07T14:28:13.383Z,2.88
2022-08-07T14:30:52.142Z,3.88
2022-08-07T14:33:23.302Z,4.05
2022-08-07T14:35:56.655Z,5.05
2022-08-07T14:38:31.431Z,4.13
2022-08-07T14:41:04.199Z,5.05
2022-08-07T14:43:55.693Z,4.88
2022-08-07T14:49:56.018Z,6.75
2022-08-07T14:54:54.080Z,6.85
2022-08-07T14:57:24.958Z,7.75
2022-08-07T15:00:06.942Z,7.90
2022-08-07T15:02:37.133Z,4.45
2022-08-07T15:05:20.314Z,8.38
2022-08-07T15:07:52.363Z,5.97
2022-08-07T15:13:19.513Z,7.00
2022-08-07T15:15:52.430Z,12.13
2022-08-07T15:18:33.825Z,9.05
2022-08-07T15:21:41.180Z,8.27
2022-08-07T15:27:15.282Z,9.53
2022-08-07T15:30:09.797Z,8.02
2022-08-07T15:38:29.725Z,9.43
2022-08-07T15:41:24.383Z,7.65
2022-08-07T15:44:07.147Z,5.43
2022-08-07T15:46:38.419Z,14.80
2022-08-07T15:54:39.568Z,10.57
2022-08-07T15:57:28.040Z,7.93
2022-08-07T16:00:06.336Z,9.75
2022-08-07T16:02:47.010Z,14.63
2022-08-07T16:05:20.053Z,10.85
2022-08-07T16:08:31.348Z,11.35
2022-08-07T16:10:52.007Z,7.50
2022-08-07T16:13:39.532Z,6.80
2022-08-07T16:16:48.704Z,11.25
2022-08-07T16:19:58.769Z,8.35
2022-08-07T16:22:33.948Z,11.38
2022-08-07T16:25:54.580Z,7.68
2022-08-07T16:30:05.889Z,10.40
2022-08-07T16:32:34.671Z,11.43
2022-08-07T16:35:52.689Z,8.38
2022-08-07T16:38:09.426Z,8.35
2022-08-07T16:41:14.467Z,9.65
2022-08-07T16:44:06.157Z,12.70
2022-08-07T16:47:15.761Z,13.75
2022-08-07T16:50:20.146Z,16.33
2022-08-07T16:53:20.743Z,14.63
2022-08-07T16:56:02.660Z,10.18
2022-08-07T16:59:10.322Z,11.13
2022-08-07T17:01:35.850Z,14.15
2022-08-07T17:04:50.673Z,6.68
2022-08-07T17:07:55.953Z,10.10
2022-08-07T17:10:35.739Z,12.93
2022-08-07T17:13:22.644Z,14.50
2022-08-07T17:16:03.766Z,9.27
2022-08-07T17:18:51.902Z,13.05
2022-08-07T17:21:22.944Z,12.73
2022-08-07T17:24:14.334Z,8.55
2022-08-07T17:26:54.503Z,12.57
2022-08-07T17:30:14.676Z,14.95
2022-08-07T17:32:52.132Z,14.75
2022-08-07T17:35:49.690Z,12.05
2022-08-07T17:38:32.990Z,14.73
2022-08-07T17:42:04.844Z,12.98
2022-08-07T17:44:33.782Z,15.63
2022-08-07T17:47:42.375Z,11.70
2022-08-07T17:50:36.285Z,15.45
2022-08-07T17:53:59.835Z,12.68
2022-08-07T17:56:35.999Z,15.88
2022-08-07T17:59:35.903Z,19.92
2022-08-07T18:02:13.997Z,14.18
2022-08-07T18:04:48.136Z,16.90
2022-08-07T18:07:38.247Z,19.13
2022-08-07T18:10:36.804Z,17.35
2022-08-07T18:13:48.459Z,15.15
2022-08-07T18:16:33.078Z,20.35
2022-08-07T18:21:07.392Z,18.45
2022-08-07T18:22:26.194Z,18.15
2022-08-07T18:25:23.985Z,20.45
2022-08-07T18:28:36.075Z,16.90
2022-08-07T18:31:14.278Z,21.10
2022-08-07T18:34:37.649Z,20.42
2022-08-07T18:38:58.181Z,22.27
2022-08-07T18:40:56.227Z,27.30
2022-08-07T18:43:42.862Z,24.00
2022-08-07T18:46:43.150Z,28.42
2022-08-07T18:50:31.385Z,26.02
2022-08-07T18:52:55.682Z,19.10
2022-08-07T18:55:43.136Z,29.92
2022-08-07T18:58:33.967Z,28.10
2022-08-07T19:01:09.646Z,28.08
2022-08-07T19:04:38.864Z,29.05
2022-08-07T19:07:53.811Z,20.20
2022-08-07T19:13:11.718Z,30.27
2022-08-07T19:16:05.025Z,27.50
2022-08-07T19:18:54.549Z,30.73
2022-08-07T19:21:47.611Z,33.80
2022-08-07T19:24:30.442Z,39.42
2022-08-07T19:28:30.949Z,29.85
2022-08-07T19:31:01.319Z,30.13
2022-08-07T19:32:46.788Z,39.63
2022-08-07T19:35:22.730Z,41.22
2022-08-07T19:37:58.463Z,33.05
2022-08-07T19:40:30.769Z,32.63
2022-08-07T19:43:07.967Z,41.30
2022-08-07T19:46:04.951Z,35.67
2022-08-07T19:48:53.749Z,37.90
2022-08-07T19:51:50.740Z,44.30
2022-08-07T19:54:33.608Z,52.30
2022-08-07T19:58:02.557Z,38.45
2022-08-07T19:59:54.149Z,48.28
2022-08-07T20:02:51.692Z,49.03
2022-08-07T20:05:25.296Z,50.63
2022-08-07T20:08:00.658Z,43.63
2022-08-07T20:10:52.058Z,56.17
2022-08-07T20:13:34.186Z,64.10
2022-08-07T20:16:03.295Z,71.32
2022-08-07T20:18:34.457Z,62.20
2022-08-07T20:21:21.131Z,68.78
2022-08-07T20:24:03.788Z,71.20
2022-08-07T20:26:45.269Z,71.85
2022-08-07T20:29:47.819Z,73.22
2022-08-07T20:32:22.408Z,76.15
2022-08-07T20:35:07.645Z,72.82
2022-08-07T20:37:55.526Z,73.47
2022-08-07T20:40:33.541Z,77.03
2022-08-07T20:43:03.837Z,79.72
2022-08-07T20:46:26.923Z,85.65
2022-08-07T20:48:34.329Z,72.22
2022-08-07T20:51:04.022Z,71.00
2022-08-07T20:54:02.936Z,90.13
2022-08-07T20:56:28.851Z,79.22
2022-08-07T20:59:01.340Z,88.50
2022-08-07T21:01:36.604Z,81.18
2022-08-07T21:04:22.349Z,85.20
2022-08-07T21:06:55.374Z,87.75
2022-08-07T21:09:51.551Z,86.60
2022-08-07T21:14:58.512Z,92.15
2022-08-07T21:18:03.514Z,84.22
2022-08-07T21:20:26.503Z,89.53
2022-08-07T21:22:59.094Z,88.45
2022-08-07T21:25:56.697Z,91.68
2022-08-07T21:28:50.125Z,93.22
2022-08-07T21:31:49.158Z,94.88
2022-08-07T21:34:46.178Z,85.00
2022-08-07T21:37:59.294Z,97.40
2022-08-07T21:40:41.456Z,83.80
2022-08-07T21:43:22.934Z,82.40
2022-08-07T21:46:10.385Z,78.43
2022-08-07T21:48:57.958Z,81.63
2022-08-07T21:51:32.204Z,97.33
2022-08-07T21:54:30.767Z,85.88
2022-08-07T21:57:52.280Z,93.22
2022-08-07T22:00:25.476Z,95.85
2022-08-07T22:02:58.434Z,100.13
2022-08-07T22:05:44.258Z,94.35
2022-08-07T22:08:14.499Z,121.63
2022-08-07T22:10:52.115Z,107.75
2022-08-07T22:13:24.248Z,102.88
2022-08-07T22:16:43.091Z,102.63
2022-08-07T22:19:30.014Z,103.68
2022-08-07T22:22:27.496Z,106.55
2022-08-07T22:25:10.967Z,93.05
2022-08-07T22:28:29.849Z,115.32
2022-08-07T22:31:45.335Z,111.43
2022-08-07T22:34:17.360Z,108.82
2022-08-07T22:36:53.177Z,100.07
2022-08-07T22:39:52.736Z,99.72
2022-08-07T22:42:25.784Z,103.18
2022-08-07T22:44:59.720Z,104.85
2022-08-07T22:48:01.823Z,103.03
2022-08-07T22:50:50.836Z,97.07
2022-08-07T22:54:06.775Z,99.85
2022-08-07T22:57:16.835Z,102.15
2022-08-07T23:00:02.919Z,95.40
2022-08-07T23:02:49.083Z,107.97
2022-08-07T23:06:15.315Z,97.00
2022-08-07T23:10:04.160Z,105.35
2022-08-07T23:12:12.365Z,107.85
2022-08-07T23:16:05.579Z,105.50
2022-08-07T23:18:32.260Z,123.50
2022-08-07T23:21:36.553Z,119.95
2022-08-07T23:24:45.477Z,135.60
2022-08-07T23:27:33.932Z,121.72
2022-08-07T23:30:37.934Z,121.45
2022-08-07T23:34:35.551Z,135.50
2022-08-07T23:36:31.511Z,135.90
2022-08-07T23:39:08.511Z,144.20
2022-08-07T23:42:09.368Z,137.25
2022-08-07T23:44:57.538Z,135.82
2022-08-07T23:48:01.940Z,148.85
2022-08-07T23:53:50.976Z,150.15
2022-08-07T23:56:31.317Z,142.93
